Mc Connell Air Force Base
KIAB : now visible

Airfield :











YOU CAN JOIN US ON...

 
LOGIN :

Register | Disclaimer

   EN    FR    IT 

 









Legend :    VFR   Marginal VFR   IFR   Intensive IFR   Very Intensive IFR
Visi :
Ceiling :
>= 8 km
>= 3000ft
5 to 8 km
1000 to 3000 ft
1500m to 5 km
500 to 1000 ft
800 to 1500m
200 to 500 ft
< 800m
< 200 ft
Symbols :   Thunderstorms  Fog  Heavy snow  Heavy precipitations  Wind > 20 kt






- Airport Elevation : 1371 ft
- IATA code : IAB


KIAB - Mc Connell Air Force Base

CURRENT METAR :
  • 061056Z AUTO 16006KT 10SM CLR 23/21 A2995 RMK AO2 SLP129 T02340207 $

EXPIRED METARs :
  • 060956Z AUTO 17004KT 10SM CLR 24/20 A2993 RMK AO2 SLP122 T02370204 $
  • 060856Z AUTO 18005KT 10SM CLR 24/20 A2992 RMK AO2 SLP118 T02380203 57006 $

TAF TAF KIAB
Valid from the 06 at 11:00 until the 07 at 17:00 UTC


061100Z 0611/0717 VRB06KT 9999 SKC QNH2995INS
BECMG 0614/0615 18010G20KT 9999 SKC QNH2994INS
BECMG 0701/0702 16010KT 9999 SKC QNH2985INS
BECMG 0714/0715 18015G25KT 9999 SKC QNH2984INS TX36/0620Z TN22/0711Z
KZKC FIR / North America



MET'MAP, your aeronautical weather chart ! - Copyright ORBIFLY December 2007 - Disclaimer

ORBIFLY MET'MAP TEAM :

Programming & Development : Alexandra Zaïnal
Concept & original design : Baudouin d'Aumeries
Assistance for programming : Marc-Olivier Méhu
Technical & hardware support : Manuel Goepfert

Contact : metmap@orbifly.com




SOURCES & CREDITS :

   NOAA       Earth
Advisory